createdAt,value
2023-02-04T00:00:22.966Z,4.23
2023-02-04T00:02:50.512Z,4.19
2023-02-04T00:05:19.249Z,4.09
2023-02-04T00:07:46.385Z,4.00
2023-02-04T00:10:13.887Z,3.96
2023-02-04T00:12:40.818Z,3.92
2023-02-04T00:15:08.217Z,3.86
2023-02-04T00:17:35.637Z,3.84
2023-02-04T00:20:02.571Z,3.79
2023-02-04T00:22:29.507Z,3.72
2023-02-04T00:24:56.770Z,3.64
2023-02-04T00:27:23.789Z,3.59
2023-02-04T00:29:50.788Z,3.54
2023-02-04T00:32:17.965Z,3.48
2023-02-04T00:34:45.018Z,3.46
2023-02-04T00:37:11.997Z,3.48
2023-02-04T00:39:38.911Z,3.54
2023-02-04T00:42:06.436Z,3.51
2023-02-04T00:44:33.461Z,3.45
2023-02-04T00:47:00.448Z,3.43
2023-02-04T00:49:27.362Z,3.38
2023-02-04T00:51:54.320Z,3.30
2023-02-04T00:54:21.289Z,3.19
2023-02-04T00:56:48.296Z,3.10
2023-02-04T00:59:15.272Z,3.02
2023-02-04T01:01:42.291Z,2.92
2023-02-04T01:04:09.309Z,2.84
2023-02-04T01:06:36.939Z,2.77
2023-02-04T01:09:04.826Z,2.71
2023-02-04T01:11:32.357Z,2.65
2023-02-04T01:13:59.521Z,2.58
2023-02-04T01:16:26.860Z,2.53
2023-02-04T01:18:55.882Z,2.47
2023-02-04T01:21:25.286Z,2.43
2023-02-04T01:23:52.727Z,2.41
2023-02-04T01:26:20.926Z,2.40
2023-02-04T01:28:48.126Z,2.39
2023-02-04T01:31:15.767Z,2.38
2023-02-04T01:33:42.878Z,2.37
2023-02-04T01:36:10.545Z,2.36
2023-02-04T01:38:37.667Z,2.34
2023-02-04T01:41:05.831Z,2.33
2023-02-04T01:43:33.982Z,2.32
2023-02-04T01:46:02.679Z,2.28
2023-02-04T01:48:30.660Z,2.28
2023-02-04T01:51:06.262Z,2.27
2023-02-04T01:53:34.880Z,2.25
2023-02-04T01:56:20.216Z,2.21
2023-02-04T01:58:48.180Z,2.22
2023-02-04T02:01:42.020Z,2.18
2023-02-04T02:04:12.322Z,2.16
2023-02-04T02:06:44.282Z,2.14
2023-02-04T02:09:11.196Z,2.13
2023-02-04T02:11:38.229Z,2.15
2023-02-04T02:14:05.576Z,2.20
2023-02-04T02:16:32.643Z,2.27
2023-02-04T02:19:00.072Z,2.33
2023-02-04T02:21:53.289Z,2.39
2023-02-04T02:24:33.182Z,2.47
2023-02-04T02:27:08.311Z,2.54
2023-02-04T02:29:36.947Z,2.57
2023-02-04T02:32:04.474Z,2.56
2023-02-04T02:34:32.123Z,2.54
2023-02-04T02:37:00.704Z,2.51
2023-02-04T02:39:28.358Z,2.47
2023-02-04T02:41:56.778Z,2.46
2023-02-04T02:44:25.149Z,2.42
2023-02-04T02:46:53.791Z,2.41
2023-02-04T02:49:21.606Z,2.40
2023-02-04T02:51:49.628Z,2.38
2023-02-04T02:54:27.602Z,2.35
2023-02-04T02:56:55.430Z,2.34
2023-02-04T02:59:22.855Z,2.29
2023-02-04T03:02:01.310Z,2.20
2023-02-04T03:04:32.062Z,2.13
2023-02-04T03:06:59.360Z,2.08
2023-02-04T03:09:28.196Z,2.02
2023-02-04T03:11:55.500Z,1.96
2023-02-04T03:14:25.307Z,1.91
2023-02-04T03:16:54.688Z,1.87
2023-02-04T03:19:26.394Z,1.83
2023-02-04T03:21:57.521Z,1.77
2023-02-04T03:24:24.959Z,1.73
2023-02-04T03:26:52.602Z,1.72
2023-02-04T03:29:19.699Z,1.69
2023-02-04T03:31:46.746Z,1.68
2023-02-04T03:34:14.461Z,1.66
2023-02-04T03:36:41.416Z,1.66
2023-02-04T03:39:08.425Z,1.64
2023-02-04T03:41:35.370Z,1.64
2023-02-04T03:44:02.322Z,1.63
2023-02-04T03:46:29.530Z,1.62
2023-02-04T03:48:56.532Z,1.62
2023-02-04T03:51:23.509Z,1.60
2023-02-04T03:53:50.496Z,1.61
2023-02-04T03:56:17.501Z,1.61
2023-02-04T03:58:44.422Z,1.61
2023-02-04T04:01:11.415Z,1.64
2023-02-04T04:03:38.400Z,1.64
2023-02-04T04:06:07.694Z,1.67
2023-02-04T04:08:34.868Z,1.70
2023-02-04T04:11:01.797Z,1.70
2023-02-04T04:13:28.740Z,1.73
2023-02-04T04:15:55.794Z,1.76
2023-02-04T04:18:22.738Z,1.81
2023-02-04T04:20:49.698Z,1.88
2023-02-04T04:23:16.645Z,1.98
2023-02-04T04:25:43.566Z,2.07
2023-02-04T04:28:10.545Z,2.12
2023-02-04T04:30:37.765Z,2.20
2023-02-04T04:33:04.704Z,2.28
2023-02-04T04:35:31.616Z,2.32
2023-02-04T04:37:58.554Z,2.34
2023-02-04T04:40:25.495Z,2.35
2023-02-04T04:42:52.464Z,2.33
2023-02-04T04:45:20.918Z,2.30
2023-02-04T04:47:48.004Z,2.26
2023-02-04T04:50:15.177Z,2.18
2023-02-04T04:52:42.239Z,2.12
2023-02-04T04:55:09.743Z,2.03
2023-02-04T04:57:36.758Z,1.96
2023-02-04T05:00:06.189Z,1.89
2023-02-04T05:02:33.281Z,1.85
2023-02-04T05:05:00.406Z,1.85
2023-02-04T05:07:27.824Z,1.82
2023-02-04T05:09:54.728Z,1.74
2023-02-04T05:12:21.645Z,1.69
2023-02-04T05:14:48.620Z,1.64
2023-02-04T05:17:15.575Z,1.58
2023-02-04T05:19:42.522Z,1.55
2023-02-04T05:22:09.499Z,1.50
2023-02-04T05:24:36.444Z,1.44
2023-02-04T05:27:03.504Z,1.37
2023-02-04T05:29:30.455Z,1.37
2023-02-04T05:31:57.440Z,1.33
2023-02-04T05:34:24.495Z,1.29
2023-02-04T05:36:51.549Z,1.26
2023-02-04T05:39:18.514Z,1.21
2023-02-04T05:41:45.610Z,1.19
2023-02-04T05:44:12.581Z,1.17
2023-02-04T05:46:39.578Z,1.12
2023-02-04T05:49:07.617Z,1.11
2023-02-04T05:51:34.600Z,1.08
2023-02-04T05:54:01.566Z,1.08
2023-02-04T05:56:28.520Z,1.06
2023-02-04T05:58:55.502Z,1.05
2023-02-04T06:01:22.503Z,1.03
2023-02-04T06:03:49.439Z,1.01
2023-02-04T06:06:16.340Z,1.00
2023-02-04T06:08:43.320Z,1.01
2023-02-04T06:11:10.231Z,1.00
2023-02-04T06:13:37.211Z,1.00
2023-02-04T06:16:04.182Z,1.01
2023-02-04T06:18:31.124Z,1.05
2023-02-04T06:20:58.047Z,1.04
2023-02-04T06:23:24.993Z,1.03
2023-02-04T06:25:51.942Z,0.99
2023-02-04T06:28:19.165Z,0.97
2023-02-04T06:30:46.233Z,0.95
2023-02-04T06:33:13.260Z,0.96
2023-02-04T06:35:40.195Z,0.97
2023-02-04T06:38:07.164Z,0.94
2023-02-04T06:40:34.406Z,0.93
2023-02-04T06:43:04.311Z,0.93
2023-02-04T06:45:31.525Z,0.97
2023-02-04T06:47:58.507Z,0.97
2023-02-04T06:50:25.506Z,0.98
2023-02-04T06:52:52.422Z,0.98
2023-02-04T06:55:19.465Z,0.98
2023-02-04T06:57:46.434Z,0.97
2023-02-04T07:00:14.305Z,0.97
2023-02-04T07:02:42.499Z,0.95
2023-02-04T07:05:09.547Z,0.97
2023-02-04T07:07:36.516Z,1.00
2023-02-04T07:10:04.103Z,1.03
2023-02-04T07:12:31.035Z,1.04
2023-02-04T07:14:58.016Z,1.05
2023-02-04T07:17:24.920Z,1.12
2023-02-04T07:19:52.879Z,1.36
2023-02-04T07:22:19.843Z,1.97
2023-02-04T07:24:46.770Z,2.71
2023-02-04T07:27:13.728Z,3.46
2023-02-04T07:29:40.728Z,4.22
2023-02-04T07:32:07.732Z,4.93
2023-02-04T07:34:34.876Z,5.52
2023-02-04T07:37:02.222Z,6.12
2023-02-04T07:39:29.215Z,6.73
2023-02-04T07:41:56.280Z,7.27
2023-02-04T07:44:23.254Z,7.70
2023-02-04T07:46:50.195Z,8.15
2023-02-04T07:49:17.181Z,8.54
2023-02-04T07:51:44.135Z,8.73
2023-02-04T07:54:11.147Z,8.89
2023-02-04T07:56:38.288Z,9.25
2023-02-04T07:59:05.654Z,9.58
2023-02-04T08:01:33.050Z,9.70
2023-02-04T08:04:00.123Z,9.66
2023-02-04T08:06:27.097Z,9.81
2023-02-04T08:08:54.006Z,10.00
2023-02-04T08:11:20.988Z,10.11
2023-02-04T08:13:47.934Z,10.30
2023-02-04T08:16:14.902Z,10.30
2023-02-04T08:18:41.881Z,10.37
2023-02-04T08:21:08.815Z,10.59
2023-02-04T08:23:35.760Z,10.94
2023-02-04T08:26:02.777Z,11.09
2023-02-04T08:28:29.730Z,11.41
2023-02-04T08:30:56.777Z,11.39
2023-02-04T08:33:23.789Z,11.46
2023-02-04T08:35:50.922Z,11.45
2023-02-04T08:38:17.834Z,11.57
2023-02-04T08:40:44.976Z,11.70
2023-02-04T08:43:11.954Z,11.85
2023-02-04T08:45:39.163Z,11.96
2023-02-04T08:48:07.726Z,12.02
2023-02-04T08:50:34.810Z,12.09
2023-02-04T08:53:02.211Z,12.20
2023-02-04T08:55:29.156Z,12.20
2023-02-04T08:57:56.093Z,12.19
2023-02-04T09:00:23.215Z,11.87
2023-02-04T09:02:50.181Z,11.72
2023-02-04T09:05:17.254Z,11.66
2023-02-04T09:07:44.298Z,11.47
2023-02-04T09:10:11.346Z,11.54
2023-02-04T09:12:38.323Z,11.60
2023-02-04T09:15:05.743Z,11.48
2023-02-04T09:17:33.879Z,11.60
2023-02-04T09:20:00.828Z,11.58
2023-02-04T09:22:27.853Z,11.34
2023-02-04T09:24:54.832Z,11.03
2023-02-04T09:27:21.868Z,11.13
2023-02-04T09:29:48.842Z,11.40
2023-02-04T09:32:15.797Z,11.71
2023-02-04T09:34:42.740Z,12.11
2023-02-04T09:37:09.874Z,12.21
2023-02-04T09:39:36.812Z,12.05
2023-02-04T09:42:03.954Z,11.98
2023-02-04T09:44:31.007Z,12.05
2023-02-04T09:47:01.808Z,12.14
2023-02-04T09:49:28.958Z,11.95
2023-02-04T09:51:56.420Z,11.98
2023-02-04T09:54:24.644Z,11.99
2023-02-04T09:56:52.973Z,12.12
2023-02-04T09:59:23.213Z,12.09
2023-02-04T10:02:03.438Z,11.85
2023-02-04T10:04:30.817Z,11.63
2023-02-04T10:06:58.993Z,11.14
2023-02-04T10:09:26.073Z,11.12
2023-02-04T10:11:53.241Z,10.87
2023-02-04T10:14:23.152Z,10.53
2023-02-04T10:16:59.855Z,10.02
2023-02-04T10:19:29.277Z,9.45
2023-02-04T10:21:57.060Z,9.40
2023-02-04T10:24:30.624Z,9.42
2023-02-04T10:27:09.777Z,9.25
2023-02-04T10:29:37.608Z,8.99
2023-02-04T10:32:05.102Z,8.87
2023-02-04T10:34:40.120Z,8.94
2023-02-04T10:37:21.378Z,8.87
2023-02-04T10:39:49.830Z,8.75
2023-02-04T10:42:27.080Z,8.72
2023-02-04T10:44:54.972Z,8.45
2023-02-04T10:47:30.800Z,8.08
2023-02-04T10:50:02.869Z,7.70
2023-02-04T10:52:40.525Z,7.41
2023-02-04T10:55:17.780Z,7.21
2023-02-04T10:57:47.171Z,7.12
2023-02-04T11:00:24.308Z,7.05
2023-02-04T11:03:08.140Z,7.10
2023-02-04T11:05:36.773Z,6.93
2023-02-04T11:08:31.163Z,6.71
2023-02-04T11:11:06.782Z,6.59
2023-02-04T11:13:51.296Z,6.44
2023-02-04T11:16:18.647Z,6.45
2023-02-04T11:19:01.159Z,6.42
2023-02-04T11:21:28.047Z,6.25
2023-02-04T11:24:09.917Z,6.10
2023-02-04T11:26:44.868Z,6.17
2023-02-04T11:29:34.602Z,6.17
2023-02-04T11:32:32.448Z,6.10
2023-02-04T11:35:25.841Z,6.04
2023-02-04T11:37:54.556Z,6.00
2023-02-04T11:40:31.072Z,5.94
2023-02-04T11:43:08.755Z,5.82
2023-02-04T11:45:37.731Z,5.79
2023-02-04T11:48:20.573Z,5.90
2023-02-04T11:50:59.900Z,6.08
2023-02-04T11:53:32.540Z,6.27
2023-02-04T11:56:00.176Z,6.43
2023-02-04T11:58:31.115Z,6.43
2023-02-04T12:00:58.472Z,6.38
2023-02-04T12:03:34.373Z,6.43
2023-02-04T12:06:02.311Z,6.46
2023-02-04T12:08:36.475Z,6.33
2023-02-04T12:11:27.343Z,6.18
2023-02-04T12:13:56.653Z,6.06
2023-02-04T12:16:24.730Z,6.04
2023-02-04T12:18:52.165Z,6.19
2023-02-04T12:21:19.582Z,6.33
2023-02-04T12:23:46.548Z,6.48
2023-02-04T12:26:13.741Z,6.52
2023-02-04T12:28:40.687Z,6.40
2023-02-04T12:31:07.783Z,6.16
2023-02-04T12:33:34.768Z,6.09
2023-02-04T12:36:02.293Z,6.15
2023-02-04T12:38:29.281Z,6.22
2023-02-04T12:40:56.233Z,6.32
2023-02-04T12:43:23.452Z,6.46
2023-02-04T12:45:50.432Z,6.57
2023-02-04T12:48:17.458Z,6.67
2023-02-04T12:50:44.538Z,6.81
2023-02-04T12:53:11.506Z,6.93
2023-02-04T12:55:38.508Z,7.04
2023-02-04T12:58:05.660Z,7.00
2023-02-04T13:00:32.586Z,6.89
2023-02-04T13:02:59.543Z,6.72
2023-02-04T13:05:27.430Z,6.46
2023-02-04T13:07:54.736Z,6.06
2023-02-04T13:10:23.979Z,5.81
2023-02-04T13:12:51.827Z,5.77
2023-02-04T13:15:19.284Z,5.77
2023-02-04T13:17:46.294Z,5.82
2023-02-04T13:20:13.462Z,5.92
2023-02-04T13:22:40.605Z,5.96
2023-02-04T13:25:07.973Z,6.01
2023-02-04T13:27:35.026Z,5.91
2023-02-04T13:30:02.036Z,5.84
2023-02-04T13:32:29.005Z,5.83
2023-02-04T13:34:55.992Z,5.77
2023-02-04T13:37:22.954Z,5.71
2023-02-04T13:39:49.916Z,5.69
2023-02-04T13:42:16.866Z,5.65
2023-02-04T13:44:43.893Z,5.66
2023-02-04T13:47:11.165Z,5.50
2023-02-04T13:49:38.126Z,5.25
2023-02-04T13:52:05.216Z,5.05
2023-02-04T13:54:32.297Z,4.93
2023-02-04T13:56:59.349Z,4.86
2023-02-04T13:59:26.288Z,4.87
2023-02-04T14:01:53.275Z,4.90
2023-02-04T14:04:20.252Z,4.94
2023-02-04T14:06:47.234Z,4.99
2023-02-04T14:09:14.187Z,4.96
2023-02-04T14:11:41.222Z,5.03
2023-02-04T14:14:08.634Z,5.10
2023-02-04T14:16:37.735Z,5.17
2023-02-04T14:19:05.819Z,5.23
2023-02-04T14:21:33.119Z,5.22
2023-02-04T14:24:01.024Z,5.31
2023-02-04T14:26:27.969Z,5.38
2023-02-04T14:28:54.862Z,5.47
2023-02-04T14:31:21.819Z,5.50
2023-02-04T14:33:50.494Z,5.53
2023-02-04T14:36:17.692Z,5.50
2023-02-04T14:38:44.840Z,5.44
2023-02-04T14:41:16.262Z,5.35
2023-02-04T14:43:43.303Z,5.25
2023-02-04T14:46:10.452Z,5.19
2023-02-04T14:48:37.624Z,5.11
2023-02-04T14:51:05.706Z,5.03
2023-02-04T14:53:32.689Z,4.93
2023-02-04T14:55:59.665Z,4.89
2023-02-04T14:58:27.952Z,4.85
2023-02-04T15:00:55.655Z,4.81
2023-02-04T15:03:23.137Z,4.73
2023-02-04T15:05:50.074Z,4.68
2023-02-04T15:08:17.005Z,4.66
2023-02-04T15:10:44.018Z,4.60
2023-02-04T15:13:11.541Z,4.50
2023-02-04T15:15:38.531Z,4.45
2023-02-04T15:18:05.729Z,4.50
2023-02-04T15:20:33.063Z,4.45
2023-02-04T15:23:00.889Z,4.37
2023-02-04T15:25:27.965Z,4.26
2023-02-04T15:27:55.064Z,4.17
2023-02-04T15:30:22.739Z,4.14
2023-02-04T15:32:49.785Z,4.10
2023-02-04T15:35:16.788Z,4.03
2023-02-04T15:37:43.767Z,4.00
2023-02-04T15:40:12.027Z,3.96
2023-02-04T15:42:39.020Z,3.90
2023-02-04T15:45:06.612Z,3.86
2023-02-04T15:47:33.722Z,3.83
2023-02-04T15:50:00.650Z,3.76
2023-02-04T15:52:29.213Z,3.71
2023-02-04T15:54:56.560Z,3.58
2023-02-04T15:57:23.568Z,3.42
2023-02-04T15:59:50.523Z,3.28
2023-02-04T16:02:17.625Z,3.19
2023-02-04T16:04:45.458Z,3.10
2023-02-04T16:07:12.660Z,3.03
2023-02-04T16:09:40.070Z,2.96
2023-02-04T16:12:07.246Z,2.87
2023-02-04T16:14:34.354Z,2.81
2023-02-04T16:17:05.448Z,2.76
2023-02-04T16:19:32.402Z,2.70
2023-02-04T16:21:59.485Z,2.63
2023-02-04T16:24:27.195Z,2.57
2023-02-04T16:26:54.166Z,2.48
2023-02-04T16:29:21.120Z,2.41
2023-02-04T16:31:48.131Z,2.32
2023-02-04T16:34:15.076Z,2.24
2023-02-04T16:36:42.021Z,2.18
2023-02-04T16:39:09.020Z,2.13
2023-02-04T16:41:36.066Z,2.06
2023-02-04T16:44:03.042Z,2.00
2023-02-04T16:46:31.948Z,1.95
2023-02-04T16:48:59.477Z,1.90
2023-02-04T16:51:28.073Z,1.85
2023-02-04T16:53:55.067Z,1.80
2023-02-04T16:56:22.076Z,1.75
2023-02-04T16:58:49.637Z,1.71
2023-02-04T17:01:17.344Z,1.68
2023-02-04T17:03:45.083Z,1.64
2023-02-04T17:06:16.392Z,1.61
2023-02-04T17:08:43.544Z,1.56
2023-02-04T17:11:28.846Z,1.52
2023-02-04T17:14:06.017Z,1.48
2023-02-04T17:16:33.392Z,1.45
2023-02-04T17:19:01.628Z,1.43
2023-02-04T17:21:30.455Z,1.40
2023-02-04T17:24:03.954Z,1.39
2023-02-04T17:26:37.042Z,1.36
2023-02-04T17:29:23.892Z,1.32
2023-02-04T17:31:52.722Z,1.29
2023-02-04T17:34:19.782Z,1.26
2023-02-04T17:36:46.762Z,1.25
2023-02-04T17:39:13.675Z,1.40
2023-02-04T17:41:40.688Z,1.52
2023-02-04T17:44:07.745Z,1.57
2023-02-04T17:46:35.499Z,1.56
2023-02-04T17:49:02.564Z,1.48
2023-02-04T17:51:29.610Z,1.39
2023-02-04T17:53:56.625Z,1.29
2023-02-04T17:56:26.013Z,1.19
2023-02-04T17:58:56.244Z,1.12
2023-02-04T18:01:25.242Z,1.03
2023-02-04T18:03:52.490Z,0.95
2023-02-04T18:06:28.869Z,0.89
2023-02-04T18:09:03.260Z,0.83
2023-02-04T18:11:36.944Z,0.79
2023-02-04T18:14:17.240Z,0.73
2023-02-04T18:16:45.239Z,0.69
2023-02-04T18:19:36.976Z,0.65
2023-02-04T18:22:15.812Z,0.60
2023-02-04T18:24:45.750Z,0.58
2023-02-04T18:27:24.630Z,0.55
2023-02-04T18:29:55.556Z,0.52
2023-02-04T18:32:54.278Z,0.48
2023-02-04T18:35:37.687Z,0.45
2023-02-04T18:38:39.148Z,0.41
2023-02-04T18:41:18.365Z,0.38
2023-02-04T18:43:51.059Z,0.33
2023-02-04T18:46:35.817Z,0.29
2023-02-04T18:49:37.012Z,0.24
2023-02-04T18:52:21.633Z,0.20
2023-02-04T18:54:56.376Z,0.16
2023-02-04T18:57:35.342Z,0.12
2023-02-04T19:00:11.352Z,0.08
2023-02-04T19:02:46.694Z,0.03
2023-02-04T19:05:44.001Z,0.00
2023-02-04T19:08:19.167Z,-0.04
2023-02-04T19:10:46.256Z,-0.08
2023-02-04T19:13:31.696Z,-0.12
2023-02-04T19:16:27.064Z,-0.16
2023-02-04T19:18:55.357Z,-0.21
2023-02-04T19:21:29.161Z,-0.23
2023-02-04T19:23:58.811Z,-0.28
2023-02-04T19:26:34.014Z,-0.32
2023-02-04T19:29:02.193Z,-0.36
2023-02-04T19:31:38.188Z,-0.39
2023-02-04T19:34:25.659Z,-0.43
2023-02-04T19:36:55.045Z,-0.45
2023-02-04T19:39:40.492Z,-0.48
2023-02-04T19:42:36.908Z,-0.50
2023-02-04T19:45:23.579Z,-0.56
2023-02-04T19:47:56.040Z,-0.60
2023-02-04T19:50:32.699Z,-0.64
2023-02-04T19:53:13.756Z,-0.68
2023-02-04T19:55:51.117Z,-0.72
2023-02-04T19:58:36.682Z,-0.75
2023-02-04T20:01:08.360Z,-0.77
2023-02-04T20:03:47.313Z,-0.80
2023-02-04T20:06:37.636Z,-0.83
2023-02-04T20:09:16.204Z,-0.85
2023-02-04T20:11:58.314Z,-0.87
2023-02-04T20:14:42.706Z,-0.89
2023-02-04T20:17:24.715Z,-0.91
2023-02-04T20:19:51.775Z,-0.94
2023-02-04T20:22:18.630Z,-0.94
2023-02-04T20:24:57.879Z,-0.97
2023-02-04T20:27:30.723Z,-0.98
2023-02-04T20:30:09.768Z,-1.01
2023-02-04T20:32:58.992Z,-1.03
2023-02-04T20:35:32.269Z,-1.06
2023-02-04T20:38:10.520Z,-1.07
2023-02-04T20:40:37.637Z,-1.08
2023-02-04T20:43:17.010Z,-1.10
2023-02-04T20:46:04.747Z,-1.11
2023-02-04T20:48:38.389Z,-1.11
2023-02-04T20:51:17.864Z,-1.13
2023-02-04T20:53:50.433Z,-1.14
2023-02-04T20:56:37.592Z,-1.15
2023-02-04T20:59:34.885Z,-1.19
2023-02-04T21:02:18.818Z,-1.21
2023-02-04T21:04:53.884Z,-1.23
2023-02-04T21:07:23.031Z,-1.23
2023-02-04T21:09:51.648Z,-1.23
2023-02-04T21:12:19.314Z,-1.24
2023-02-04T21:14:46.401Z,-1.24
2023-02-04T21:17:13.451Z,-1.22
2023-02-04T21:19:40.427Z,-1.21
2023-02-04T21:22:07.383Z,-1.19
2023-02-04T21:24:34.347Z,-1.18
2023-02-04T21:27:01.429Z,-1.19
2023-02-04T21:29:28.386Z,-1.18
2023-02-04T21:31:55.368Z,-1.16
2023-02-04T21:34:22.396Z,-1.14
2023-02-04T21:36:49.320Z,-1.15
2023-02-04T21:39:16.331Z,-1.16
2023-02-04T21:41:43.278Z,-1.17
2023-02-04T21:44:10.251Z,-1.18
2023-02-04T21:46:37.226Z,-1.21
2023-02-04T21:49:05.276Z,-1.23
2023-02-04T21:51:32.304Z,-1.27
2023-02-04T21:54:00.037Z,-1.32
2023-02-04T21:56:27.147Z,-1.35
2023-02-04T21:58:54.361Z,-1.38
2023-02-04T22:01:21.486Z,-1.39
2023-02-04T22:03:48.531Z,-1.41
2023-02-04T22:06:15.469Z,-1.42
2023-02-04T22:08:42.423Z,-1.42
2023-02-04T22:11:09.368Z,-1.42
2023-02-04T22:13:54.979Z,-1.39
2023-02-04T22:16:21.911Z,-1.36
2023-02-04T22:18:48.944Z,-1.32
2023-02-04T22:21:15.899Z,-1.27
2023-02-04T22:23:42.815Z,-1.18
2023-02-04T22:26:09.889Z,-1.09
2023-02-04T22:28:36.806Z,-1.01
2023-02-04T22:31:03.906Z,-0.95
2023-02-04T22:33:30.930Z,-0.89
2023-02-04T22:35:57.868Z,-0.84
2023-02-04T22:38:24.897Z,-0.78
2023-02-04T22:40:51.844Z,-0.73
2023-02-04T22:43:18.821Z,-0.68
2023-02-04T22:45:45.804Z,-0.61
2023-02-04T22:48:12.712Z,-0.54
2023-02-04T22:50:39.629Z,-0.50
2023-02-04T22:53:06.651Z,-0.44
2023-02-04T22:55:33.752Z,-0.37
2023-02-04T22:58:00.890Z,-0.29
2023-02-04T23:00:28.200Z,-0.24
2023-02-04T23:02:55.121Z,-0.19
2023-02-04T23:05:22.072Z,-0.15
2023-02-04T23:07:49.122Z,-0.12
2023-02-04T23:10:16.500Z,-0.09
2023-02-04T23:12:43.515Z,-0.06
2023-02-04T23:15:12.481Z,-0.07
2023-02-04T23:17:39.552Z,-0.10
2023-02-04T23:20:07.223Z,-0.13
2023-02-04T23:22:34.229Z,-0.17
2023-02-04T23:25:01.197Z,-0.20
2023-02-04T23:27:28.226Z,-0.21
2023-02-04T23:29:55.149Z,-0.20
2023-02-04T23:32:23.418Z,-0.19
2023-02-04T23:34:50.358Z,-0.17
2023-02-04T23:37:17.248Z,-0.17
2023-02-04T23:39:44.159Z,-0.14
2023-02-04T23:42:11.205Z,-0.15
2023-02-04T23:44:38.156Z,-0.17
2023-02-04T23:47:05.161Z,-0.20
2023-02-04T23:49:32.063Z,-0.22
2023-02-04T23:51:59.056Z,-0.20
2023-02-04T23:54:26.031Z,-0.21
2023-02-04T23:56:53.407Z,-0.22
2023-02-04T23:59:20.351Z,-0.22
